Time;durP1;ratioP1;P1;durP2;ratioP2;P2;SDS_P1;SDS_P2;PMS_P1;PMS_P2;Temp;Humidity;BMP_temperature;BMP_pressure;BME280_temperature;BME280_humidity;BME280_pressure;Samples;Min_cycle;Max_cycle;Signal;HPM_P1;HPM_P2
2022/04/29 00:00:54;;;;;;;1.40;1.30;;;3.20;1.40;;;4.27;100.00;96385.94;649270;212;31558;-75
2022/04/29 00:03:37;;;;;;;1.60;1.20;;;3.20;1.40;;;4.18;100.00;96384.33;619671;226;31883;-73
2022/04/29 00:06:26;;;;;;;1.45;1.05;;;3.10;1.40;;;4.16;100.00;96386.34;646649;212;31550;-74
2022/04/29 00:09:13;;;;;;;1.02;1.00;;;3.10;1.40;;;4.18;100.00;96383.73;636954;216;31704;-74
2022/04/29 00:12:02;;;;;;;1.70;1.50;;;3.00;1.40;;;4.08;100.00;96378.81;619604;226;32488;-74
2022/04/29 00:14:43;;;;;;;1.10;0.85;;;3.00;1.40;;;4.27;100.00;96377.45;649352;212;31563;-75
2022/04/29 00:17:30;;;;;;;2.60;1.20;;;3.20;1.40;;;4.23;100.00;96375.23;647210;216;32165;-72
2022/04/29 00:20:12;;;;;;;0.80;0.80;;;3.10;1.40;;;4.15;100.00;96379.98;647300;216;31630;-73
2022/04/29 00:22:56;;;;;;;1.00;0.80;;;3.00;1.40;;;4.05;100.00;96376.55;645763;216;31554;-74
2022/04/29 00:25:44;;;;;;;1.40;1.00;;;2.80;1.40;;;3.99;100.00;96376.23;647265;212;32099;-76
2022/04/29 00:28:30;;;;;;;0.70;0.70;;;2.70;1.40;;;3.87;100.00;96369.33;647840;212;31549;-74
2022/04/29 00:31:12;;;;;;;0.82;0.80;;;2.60;1.40;;;3.79;100.00;96373.45;648170;212;31787;-75
2022/04/29 00:35:57;;;;;;;1.50;1.17;;;2.60;1.40;;;3.65;100.00;96370.22;647550;216;31595;-74
2022/04/29 00:38:48;;;;;;;1.73;1.48;;;2.50;1.40;;;3.67;100.00;96364.50;647328;216;31608;-73
2022/04/29 00:41:30;;;;;;;1.80;1.30;;;2.50;1.40;;;3.73;100.00;96358.05;619429;222;31854;-72
2022/04/29 00:44:11;;;;;;;3.10;1.20;;;2.60;1.40;;;3.74;100.00;96355.50;618987;226;31918;-72
2022/04/29 00:46:56;;;;;;;0.70;0.70;;;2.70;1.40;;;3.73;100.00;96351.67;646695;212;31970;-72
2022/04/29 00:52:18;;;;;;;1.08;0.68;;;2.60;1.40;;;3.69;100.00;96346.48;620230;222;31923;-74
2022/04/29 00:55:07;;;;;;;0.90;0.80;;;2.60;1.40;;;3.62;100.00;96348.44;646439;212;31615;-72
2022/04/29 00:58:06;;;;;;;2.58;1.40;;;2.50;1.40;;;3.61;100.00;96348.41;647092;212;31549;-73
2022/04/29 01:00:48;;;;;;;1.10;0.90;;;2.50;1.40;;;3.59;100.00;96346.77;647267;216;31639;-72
2022/04/29 01:03:32;;;;;;;0.90;0.80;;;2.40;1.40;;;3.54;100.00;96344.36;619419;225;31885;-72
2022/04/29 01:06:14;;;;;;;0.80;0.80;;;2.40;1.40;;;3.39;100.00;96336.09;645197;216;31760;-71
2022/04/29 01:08:59;;;;;;;1.10;1.10;;;2.30;1.40;;;3.45;100.00;96333.22;639524;212;31728;-72
2022/04/29 01:11:46;;;;;;;1.30;0.73;;;2.30;1.40;;;3.40;100.00;96335.11;646488;212;31572;-76
2022/04/29 01:14:28;;;;;;;1.02;0.80;;;2.20;1.40;;;3.36;100.00;96332.55;646633;216;31479;-75
2022/04/29 01:17:14;;;;;;;1.30;1.20;;;2.20;1.40;;;3.32;100.00;96332.55;648020;212;31556;-75
2022/04/29 01:19:55;;;;;;;0.75;0.75;;;2.40;1.40;;;3.30;100.00;96331.28;647921;212;31540;-75
2022/04/29 01:27:50;;;;;;;0.88;0.70;;;2.30;1.40;;;3.37;100.00;96333.22;648749;216;31531;-75
2022/04/29 01:30:34;;;;;;;1.75;1.02;;;2.40;1.40;;;3.26;100.00;96327.61;648264;212;31558;-74
2022/04/29 01:36:00;;;;;;;1.55;1.37;;;2.20;1.40;;;3.16;100.00;96320.88;646087;216;31587;-73
2022/04/29 01:38:41;;;;;;;1.40;1.00;;;2.20;1.40;;;3.21;100.00;96325.95;645683;216;32327;-73
2022/04/29 01:41:25;;;;;;;2.67;1.25;;;2.20;1.40;;;3.33;100.00;96323.62;647866;216;31461;-73
2022/04/29 01:44:13;;;;;;;2.70;1.30;;;2.40;1.40;;;3.38;100.00;96320.85;646836;216;31585;-72
2022/04/29 01:46:54;;;;;;;1.48;1.30;;;2.40;1.40;;;3.43;100.00;96321.70;646436;216;31588;-72
2022/04/29 01:49:36;;;;;;;2.00;1.90;;;2.40;1.40;;;3.28;100.00;96318.75;645827;213;31582;-73
2022/04/29 01:52:24;;;;;;;0.95;0.85;;;2.20;1.40;;;3.27;100.00;96318.58;647154;212;31549;-75
2022/04/29 01:55:14;;;;;;;2.20;1.20;;;2.20;1.40;;;3.10;100.00;96312.03;646108;212;32225;-73
2022/04/29 01:57:59;;;;;;;0.95;0.62;;;2.10;1.40;;;3.09;100.00;96311.46;648265;216;31577;-74
2022/04/29 02:00:41;;;;;;;1.23;0.80;;;2.10;1.40;;;3.06;100.00;96312.00;646705;212;32103;-74
2022/04/29 02:03:25;;;;;;;1.15;0.85;;;2.10;1.40;;;3.08;100.00;96310.64;646270;216;31572;-73
2022/04/29 02:06:12;;;;;;;0.65;0.65;;;2.00;1.40;;;3.04;100.00;96307.56;648241;212;31562;-74
2022/04/29 02:08:54;;;;;;;1.25;1.17;;;2.00;1.40;;;3.14;100.00;96309.38;634471;216;31728;-73
2022/04/29 02:11:36;;;;;;;1.90;1.17;;;2.10;1.40;;;3.14;100.00;96308.62;647847;216;31681;-74
2022/04/29 02:14:17;;;;;;;0.88;0.85;;;1.90;1.40;;;2.95;100.00;96311.36;648878;216;31696;-75
2022/04/29 02:17:06;;;;;;;0.60;0.53;;;1.90;1.40;;;2.90;100.00;96302.25;646648;216;31514;-72
2022/04/29 02:19:53;;;;;;;1.15;1.05;;;1.80;1.40;;;2.68;100.00;96305.17;646036;212;31666;-72
2022/04/29 02:22:39;;;;;;;0.80;0.80;;;1.60;1.40;;;2.63;100.00;96303.34;648429;216;31553;-76
2022/04/29 02:25:19;;;;;;;0.85;0.60;;;1.40;1.40;;;2.52;100.00;96298.03;646701;216;31598;-73
2022/04/29 02:28:01;;;;;;;1.70;1.40;;;1.30;1.40;;;2.32;100.00;96301.17;621253;226;32120;-75
2022/04/29 02:30:43;;;;;;;2.12;1.10;;;1.20;1.40;;;2.41;100.00;96291.70;647809;216;31842;-75
2022/04/29 02:35:57;;;;;;;0.60;0.60;;;1.30;1.40;;;2.38;100.00;96291.27;647574;216;31576;-73
2022/04/29 02:38:44;;;;;;;0.80;0.77;;;1.40;1.40;;;2.46;100.00;96292.49;647645;216;31644;-73
2022/04/29 02:41:28;;;;;;;1.10;1.00;;;1.30;1.40;;;2.37;100.00;96291.23;646557;212;31656;-73
2022/04/29 02:44:16;;;;;;;3.30;1.10;;;1.30;1.40;;;2.31;100.00;96290.63;648688;216;31574;-72
2022/04/29 02:49:47;;;;;;;1.60;1.10;;;1.30;1.40;;;2.21;100.00;96278.62;647114;216;31549;-74
2022/04/29 02:52:33;;;;;;;1.10;1.00;;;1.40;1.40;;;2.31;100.00;96277.82;646898;216;31563;-72
2022/04/29 02:55:20;;;;;;;2.00;1.57;;;1.50;1.40;;;2.36;100.00;96272.27;648428;212;31563;-74
2022/04/29 02:58:12;;;;;;;1.23;0.80;;;1.40;1.40;;;2.35;100.00;96271.03;631407;222;31784;-73
2022/04/29 03:00:59;;;;;;;0.90;0.80;;;1.30;1.40;;;2.39;100.00;96266.67;648543;216;31616;-73
2022/04/29 03:03:40;;;;;;;0.80;0.80;;;1.30;1.40;;;2.24;100.00;96262.89;643681;215;31550;-74
2022/04/29 03:06:22;;;;;;;3.53;1.60;;;1.20;1.40;;;2.26;100.00;96258.08;647811;212;32147;-73
2022/04/29 03:09:04;;;;;;;1.70;1.10;;;1.20;1.40;;;2.17;100.00;96255.53;647098;216;31705;-76
2022/04/29 03:11:49;;;;;;;1.40;1.30;;;1.10;1.40;;;2.15;100.00;96257.63;646982;212;32740;-74
2022/04/29 03:20:02;;;;;;;0.50;0.50;;;1.20;1.40;;;2.18;100.00;96258.30;646698;216;31726;-72
2022/04/29 03:22:51;;;;;;;0.80;0.73;;;1.20;1.40;;;2.03;100.00;96252.83;648248;212;42113;-74
2022/04/29 03:25:36;;;;;;;0.70;0.70;;;1.00;1.40;;;1.94;100.00;96253.78;619191;222;32018;-73
2022/04/29 03:28:24;;;;;;;0.73;0.73;;;0.90;1.40;;;1.96;100.00;96254.97;619581;226;32796;-73
2022/04/29 03:31:08;;;;;;;1.20;0.88;;;0.90;1.40;;;1.91;100.00;96254.83;646896;216;31559;-75
2022/04/29 03:35:51;;;;;;;1.00;0.90;;;0.80;1.40;;;1.74;100.00;96253.79;647178;212;31759;-73
2022/04/29 03:38:38;;;;;;;2.10;0.80;;;0.70;1.40;;;1.71;100.00;96254.99;647196;216;32382;-71
2022/04/29 03:44:02;;;;;;;0.80;0.60;;;0.80;1.40;;;1.74;100.00;96252.98;645949;212;31554;-73
2022/04/29 03:46:50;;;;;;;1.40;1.10;;;0.80;1.40;;;1.78;100.00;96250.47;647864;212;31480;-74
2022/04/29 03:49:38;;;;;;;1.00;0.70;;;0.80;1.40;;;1.82;100.00;96252.13;618779;225;32113;-72
2022/04/29 03:52:25;;;;;;;0.60;0.60;;;0.90;1.40;;;1.83;100.00;96248.84;642979;217;31559;-74
2022/04/29 03:55:08;;;;;;;1.17;0.80;;;0.80;1.40;;;1.83;100.00;96247.02;649035;216;31489;-72
2022/04/29 03:57:53;;;;;;;1.10;1.00;;;0.70;1.40;;;1.77;100.00;96246.65;645166;216;31726;-75
2022/04/29 04:00:33;;;;;;;0.50;0.50;;;0.80;1.40;;;1.68;100.00;96250.43;645357;216;31561;-73
2022/04/29 04:03:21;;;;;;;1.20;0.63;;;0.70;1.40;;;1.68;100.00;96252.41;647618;216;42166;-74
2022/04/29 04:09:03;;;;;;;0.85;0.85;;;0.70;1.40;;;1.71;100.00;96253.30;645936;216;31521;-74
2022/04/29 04:11:48;;;;;;;0.60;0.60;;;0.70;1.40;;;1.74;100.00;96250.58;646840;216;35444;-73
2022/04/29 04:14:28;;;;;;;0.80;0.80;;;0.80;1.40;;;1.74;100.00;96251.92;646578;216;31523;-73
2022/04/29 04:19:45;;;;;;;1.80;0.90;;;0.70;1.40;;;1.86;100.00;96257.34;646742;212;31537;-74
2022/04/29 04:22:29;;;;;;;1.60;0.57;;;0.80;1.40;;;1.89;100.00;96258.41;646460;212;31545;-76
2022/04/29 04:25:11;;;;;;;0.60;0.60;;;0.90;1.40;;;1.92;100.00;96267.78;647478;216;42166;-74
2022/04/29 04:27:52;;;;;;;1.70;0.90;;;0.80;1.40;;;1.96;100.00;96274.03;620263;226;31870;-75
2022/04/29 04:30:34;;;;;;;1.37;1.30;;;1.00;1.40;;;1.98;100.00;96272.87;645957;212;31532;-73
2022/04/29 04:35:56;;;;;;;0.60;0.60;;;1.10;1.40;;;1.84;100.00;96275.05;642319;216;31556;-75
2022/04/29 04:38:38;;;;;;;1.40;1.00;;;0.80;1.40;;;1.80;100.00;96282.33;647335;216;31541;-73
2022/04/29 04:41:23;;;;;;;1.37;1.27;;;0.80;1.40;;;1.96;100.00;96280.35;645632;216;31508;-73
2022/04/29 04:44:04;;;;;;;1.00;0.90;;;0.90;1.40;;;2.07;100.00;96281.61;646616;212;31749;-72
2022/04/29 04:46:46;;;;;;;1.60;0.82;;;1.00;1.40;;;2.20;100.00;96282.62;645690;216;42529;-72
2022/04/29 04:49:28;;;;;;;1.20;1.10;;;1.20;1.40;;;2.25;100.00;96276.72;645476;216;32020;-73
2022/04/29 04:52:09;;;;;;;1.67;1.58;;;1.20;1.40;;;2.43;100.00;96283.17;645822;212;31691;-74
2022/04/29 04:54:51;;;;;;;1.30;1.12;;;1.50;1.40;;;2.60;100.00;96279.95;618308;226;32022;-73
2022/04/29 04:57:33;;;;;;;0.90;0.80;;;1.70;1.40;;;2.72;100.00;96281.82;646844;216;31644;-74
2022/04/29 05:00:15;;;;;;;1.60;1.10;;;1.80;1.40;;;2.89;100.00;96275.72;646254;216;42283;-73
2022/04/29 05:02:57;;;;;;;1.25;0.85;;;2.00;1.40;;;3.00;100.00;96280.97;645448;216;31611;-75
2022/04/29 05:07:28;;;;;;;1.40;0.93;;;2.20;1.40;;;3.27;100.00;96281.16;646504;212;31592;-72
2022/04/29 05:10:10;;;;;;;1.37;1.17;;;2.30;1.40;;;3.38;100.00;96280.33;646365;216;31549;-72
2022/04/29 05:12:52;;;;;;;0.90;0.80;;;2.40;1.40;;;3.52;100.00;96276.59;647152;212;31598;-72
2022/04/29 05:15:33;;;;;;;2.85;0.68;;;2.50;1.40;;;3.65;100.00;96277.23;619947;222;31871;-74
2022/04/29 05:18:16;;;;;;;0.90;0.90;;;2.60;1.40;;;3.80;100.00;96283.42;645610;216;31526;-73
2022/04/29 05:20:57;;;;;;;2.10;2.00;;;2.80;1.40;;;3.87;100.00;96282.53;645795;212;31634;-73
2022/04/29 05:23:39;;;;;;;1.50;1.15;;;2.80;1.40;;;3.92;100.00;96284.15;647360;212;31564;-73
2022/04/29 05:26:20;;;;;;;1.27;1.15;;;2.90;1.40;;;3.98;100.00;96289.28;646430;212;31570;-72
2022/04/29 05:29:02;;;;;;;1.48;1.37;;;3.00;1.40;;;4.16;100.00;96281.47;646786;216;31765;-73
2022/04/29 05:31:44;;;;;;;1.55;1.45;;;3.10;1.40;;;4.25;100.00;96283.97;618167;226;31876;-72
2022/04/29 05:35:53;;;;;;;1.75;1.45;;;3.30;1.40;;;4.30;100.00;96277.97;619489;222;31899;-73
2022/04/29 05:44:13;;;;;;;2.80;1.33;;;3.80;1.40;;;4.82;100.00;96281.58;646118;216;31715;-73
2022/04/29 05:46:54;;;;;;;1.90;1.70;;;3.90;1.40;;;5.10;100.00;96281.80;645511;216;31600;-73
2022/04/29 05:49:36;;;;;;;1.77;1.67;;;4.10;1.40;;;5.34;100.00;96279.81;646580;212;32134;-73
2022/04/29 05:52:21;;;;;;;3.30;1.70;;;4.20;1.40;;;5.42;100.00;96286.88;646004;212;31579;-72
2022/04/29 05:55:02;;;;;;;2.55;1.25;;;4.30;1.40;;;5.67;100.00;96280.45;647388;212;31554;-73
2022/04/29 05:57:47;;;;;;;3.95;2.40;;;4.50;1.40;;;5.86;100.00;96283.31;647021;213;32220;-73
2022/04/29 06:00:29;;;;;;;3.78;2.25;;;4.70;1.40;;;6.04;100.00;96287.15;646625;212;31725;-74
2022/04/29 06:03:11;;;;;;;1.95;1.85;;;4.90;1.40;;;6.14;100.00;96286.24;646055;216;31667;-75
2022/04/29 06:05:52;;;;;;;1.70;1.50;;;5.10;1.40;;;6.33;100.00;96289.13;646540;216;42255;-73
2022/04/29 06:08:34;;;;;;;2.10;1.90;;;5.30;1.40;;;6.55;100.00;96288.52;640195;216;32120;-73
2022/04/29 06:11:16;;;;;;;3.25;1.50;;;5.50;1.40;;;6.75;100.00;96285.88;645760;216;31698;-73
2022/04/29 06:13:57;;;;;;;2.03;1.73;;;5.70;1.40;;;6.93;100.00;96285.11;647265;212;31588;-73
2022/04/29 06:16:39;;;;;;;3.42;1.90;;;5.90;1.40;;;7.13;100.00;96286.92;647050;216;42157;-73
2022/04/29 06:19:21;;;;;;;4.55;2.42;;;6.00;1.40;;;7.35;100.00;96289.42;645654;212;31580;-74
2022/04/29 06:22:04;;;;;;;2.43;1.90;;;6.20;1.40;;;7.52;100.00;96290.49;618214;222;31923;-73
2022/04/29 06:24:45;;;;;;;2.30;1.90;;;6.40;1.40;;;7.68;100.00;96294.52;646448;216;31720;-72
2022/04/29 06:27:27;;;;;;;2.40;2.20;;;6.50;1.40;;;7.84;100.00;96290.70;646561;216;31650;-73
2022/04/29 06:30:09;;;;;;;3.57;2.33;;;6.70;1.40;;;8.07;100.00;96290.45;646674;216;31517;-73
2022/04/29 06:32:55;;;;;;;3.53;2.03;;;6.90;1.40;;;8.29;100.00;96284.18;646579;216;31742;-74
2022/04/29 06:35:51;;;;;;;2.80;2.20;;;7.20;1.40;;;8.74;100.00;96289.42;645763;216;31640;-72
2022/04/29 06:38:35;;;;;;;1.97;1.77;;;8.00;1.40;;;9.07;100.00;96293.06;646121;216;31698;-72
2022/04/29 06:41:17;;;;;;;2.10;1.80;;;8.20;1.40;;;9.33;100.00;96299.44;618375;226;32139;-73
2022/04/29 06:43:59;;;;;;;2.72;2.05;;;8.40;1.40;;;9.49;100.00;96295.45;646201;216;31617;-73
2022/04/29 06:46:44;;;;;;;3.00;1.80;;;8.50;1.40;;;9.72;100.00;96295.98;647802;216;31564;-73
2022/04/29 06:49:25;;;;;;;1.70;1.40;;;8.80;1.40;;;9.96;100.00;96298.70;646966;216;31533;-73
2022/04/29 06:52:10;;;;;;;2.00;1.80;;;9.10;1.40;;;10.18;100.00;96301.47;646003;216;31555;-73
2022/04/29 06:54:51;;;;;;;4.50;2.17;;;9.20;1.40;;;10.39;100.00;96299.38;645784;216;31560;-73
2022/04/29 06:57:34;;;;;;;1.80;1.60;;;9.50;1.40;;;10.53;100.00;96296.37;644807;216;31701;-73
2022/04/29 07:00:16;;;;;;;3.10;2.00;;;9.50;1.40;;;10.73;100.00;96301.00;647280;212;31587;-72
2022/04/29 07:02:57;;;;;;;1.90;1.80;;;9.80;1.40;;;11.05;100.00;96300.60;619277;226;32616;-73
2022/04/29 07:05:39;;;;;;;2.30;2.00;;;9.90;1.40;;;11.22;100.00;96295.67;618824;225;31930;-73
2022/04/29 07:08:21;;;;;;;2.10;1.90;;;9.90;1.40;;;11.48;100.00;96296.45;642420;216;33127;-73
2022/04/29 07:11:02;;;;;;;2.12;1.83;;;10.30;1.40;;;11.72;100.00;96298.50;645908;212;32182;-73
2022/04/29 07:13:44;;;;;;;3.10;2.13;;;10.60;1.40;;;11.96;100.00;96291.94;645549;216;31675;-73
2022/04/29 07:16:26;;;;;;;1.80;1.50;;;10.80;1.40;;;12.18;99.38;96285.56;619549;222;31921;-73
2022/04/29 07:19:07;;;;;;;1.90;1.57;;;11.00;1.40;;;12.47;93.41;96280.52;619273;225;45609;-73
2022/04/29 07:21:49;;;;;;;2.37;2.17;;;11.40;1.40;;;12.74;84.06;96283.95;645771;216;42742;-73
2022/04/29 07:24:31;;;;;;;1.95;1.70;;;12.00;1.40;;;12.99;82.86;96277.02;647048;212;42863;-73
2022/04/29 07:27:16;;;;;;;2.15;1.87;;;12.10;1.40;;;13.07;77.26;96276.09;646411;216;42184;-73
2022/04/29 07:29:58;;;;;;;1.30;1.20;;;12.30;1.40;;;13.45;77.25;96267.05;645166;216;31557;-73
2022/04/29 07:32:40;;;;;;;2.50;2.20;;;12.70;1.40;;;13.48;72.67;96268.04;647149;216;31553;-73
2022/04/29 07:44:15;;;;;;;1.90;1.80;;;13.30;1.40;;;14.03;66.13;96254.15;646220;216;33304;-73
2022/04/29 07:46:57;;;;;;;3.62;1.60;;;13.20;1.40;;;14.38;64.68;96249.30;647221;216;42650;-73
2022/04/29 07:49:38;;;;;;;2.05;1.85;;;13.70;1.40;;;14.53;61.31;96241.48;647197;216;36181;-73
2022/04/29 07:52:20;;;;;;;2.30;1.60;;;13.90;1.40;;;14.97;62.23;96245.61;646488;212;31625;-72
2022/04/29 07:55:02;;;;;;;3.50;1.87;;;14.30;1.40;;;14.91;59.13;96248.88;645677;215;42613;-73
2022/04/29 07:57:44;;;;;;;1.60;1.40;;;14.20;1.40;;;14.92;56.99;96249.28;645564;216;42161;-73
2022/04/29 08:00:25;;;;;;;2.08;1.60;;;14.20;1.40;;;14.92;55.17;96245.23;645510;216;31536;-73
2022/04/29 08:03:07;;;;;;;2.12;1.67;;;14.20;1.40;;;14.94;55.77;96242.25;619506;225;31912;-73
2022/04/29 08:05:49;;;;;;;3.83;1.40;;;14.20;1.40;;;15.11;56.15;96242.98;647011;212;31607;-73
2022/04/29 08:08:30;;;;;;;1.93;1.80;;;14.40;1.40;;;15.50;55.95;96235.24;641686;212;32117;-74
2022/04/29 08:11:12;;;;;;;2.95;2.30;;;14.80;1.40;;;15.06;52.22;96235.40;647662;216;31610;-73
2022/04/29 08:13:56;;;;;;;2.10;1.20;;;14.20;1.40;;;14.90;52.62;96229.13;646516;212;31560;-73
2022/04/29 08:16:36;;;;;;;1.77;1.67;;;14.10;1.40;;;14.77;54.61;96230.48;646576;216;31637;-73
2022/04/29 08:19:18;;;;;;;3.67;1.40;;;14.10;1.40;;;15.24;54.34;96219.17;647675;216;31567;-73
2022/04/29 08:21:59;;;;;;;1.40;1.20;;;14.60;1.40;;;15.63;54.16;96222.39;646675;216;32909;-73
2022/04/29 08:24:44;;;;;;;2.90;1.53;;;15.00;1.40;;;15.54;48.42;96211.55;618611;223;31943;-73
2022/04/29 08:27:25;;;;;;;2.33;1.60;;;14.80;1.40;;;15.48;46.88;96215.66;646416;212;32119;-72
2022/04/29 08:30:11;;;;;;;1.95;1.50;;;14.60;1.40;;;15.64;46.66;96205.31;647080;216;31500;-72
2022/04/29 08:32:52;;;;;;;1.90;1.60;;;15.00;1.40;;;16.08;48.88;96202.27;648281;212;31550;-74
2022/04/29 08:35:52;;;;;;;2.58;1.40;;;15.60;1.40;;;16.70;46.67;96206.13;646164;216;31572;-73
2022/04/29 08:38:34;;;;;;;2.45;1.58;;;16.00;1.40;;;16.65;46.19;96206.91;635601;220;31862;-72
2022/04/29 08:41:15;;;;;;;1.42;1.33;;;15.70;1.40;;;16.05;45.96;96201.55;646050;216;31499;-73
2022/04/29 08:43:57;;;;;;;1.25;1.15;;;15.50;1.40;;;16.38;46.62;96203.47;646689;216;31554;-73
2022/04/29 08:46:39;;;;;;;2.80;1.50;;;15.90;1.40;;;16.63;45.06;96202.55;618694;225;32128;-73
2022/04/29 08:49:21;;;;;;;3.40;1.73;;;16.00;1.40;;;16.70;42.80;96200.66;647649;216;31827;-72
2022/04/29 08:52:03;;;;;;;4.82;1.40;;;16.10;1.40;;;17.67;45.27;96194.73;647492;216;31703;-73
2022/04/29 09:00:22;;;;;;;1.90;1.70;;;16.50;1.40;;;17.81;43.12;96188.08;646865;212;31655;-73
2022/04/29 09:03:07;;;;;;;1.80;1.50;;;17.20;1.40;;;17.26;41.87;96193.89;646025;216;31842;-73
2022/04/29 09:05:48;;;;;;;2.70;1.60;;;16.30;1.40;;;17.31;42.00;96187.71;646913;216;31693;-73
2022/04/29 09:08:33;;;;;;;2.65;1.70;;;17.80;1.40;;;16.69;41.02;96194.02;614456;222;32097;-73
2022/04/29 09:11:12;;;;;;;2.83;1.85;;;16.10;1.40;;;17.04;40.93;96194.51;646827;215;31629;-73
2022/04/29 09:13:53;;;;;;;2.37;2.17;;;16.90;1.40;;;17.69;39.22;96186.08;645663;212;31797;-73
2022/04/29 09:16:39;;;;;;;2.10;1.90;;;18.20;1.40;;;17.68;39.77;96193.14;646974;212;31591;-73
2022/04/29 09:19:29;;;;;;;2.10;1.80;;;17.40;1.40;;;17.47;41.03;96184.77;618461;225;31859;-73
2022/04/29 09:22:12;;;;;;;2.28;1.55;;;17.60;1.40;;;17.46;39.95;96186.12;645941;216;31572;-73
2022/04/29 09:25:00;;;;;;;2.00;1.80;;;16.70;1.40;;;16.25;41.66;96187.88;647548;216;31630;-73
2022/04/29 09:27:55;;;;;;;2.40;2.20;;;16.00;1.40;;;16.94;42.51;96184.05;646021;216;31730;-74
2022/04/29 09:30:39;;;;;;;1.75;1.52;;;16.70;1.40;;;16.76;41.24;96181.84;646152;212;32136;-73
2022/04/29 09:35:53;;;;;;;1.90;1.45;;;19.50;1.40;;;19.48;37.47;96169.55;647865;216;31587;-73
2022/04/29 09:41:25;;;;;;;2.10;1.60;;;20.50;1.40;;;20.43;36.26;96164.45;646183;212;31546;-73
2022/04/29 09:44:07;;;;;;;1.75;1.55;;;21.40;1.40;;;20.96;36.40;96168.89;645381;216;31534;-73
2022/04/29 09:46:48;;;;;;;5.10;1.83;;;22.10;1.40;;;20.93;35.65;96164.49;646070;212;42173;-74
2022/04/29 09:49:30;;;;;;;2.10;1.65;;;20.90;1.40;;;20.33;37.77;96159.17;646406;216;31577;-73
2022/04/29 09:52:15;;;;;;;1.90;1.70;;;21.80;1.40;;;22.24;34.73;96160.03;647342;212;31535;-73
2022/04/29 09:55:02;;;;;;;1.62;1.52;;;22.10;1.40;;;21.50;35.49;96161.41;647054;212;31651;-73
2022/04/29 09:57:52;;;;;;;2.28;1.70;;;21.10;1.40;;;21.03;33.65;96159.87;647272;212;31819;-73
2022/04/29 10:00:32;;;;;;;1.70;1.60;;;21.20;1.40;;;19.98;35.25;96168.28;645425;216;31516;-73
2022/04/29 10:03:14;;;;;;;3.00;2.40;;;20.10;1.40;;;21.41;35.38;96160.86;646687;216;31677;-72
2022/04/29 10:05:55;;;;;;;2.28;2.08;;;22.10;1.40;;;21.33;33.70;96159.62;645811;216;31707;-73
2022/04/29 10:08:37;;;;;;;2.47;2.28;;;21.00;1.40;;;21.03;33.42;96156.64;640774;216;42408;-73
2022/04/29 10:11:22;;;;;;;2.65;1.75;;;21.50;1.40;;;25.57;33.28;96138.00;645055;216;32253;-73
2022/04/29 10:14:04;;;;;;;3.85;1.98;;;26.20;1.40;;;25.65;30.18;96140.95;618488;226;32186;-74
2022/04/29 10:21:15;;;;;;;2.85;2.50;;;23.50;1.40;;;25.25;33.92;96133.43;646791;216;32229;-73
2022/04/29 10:22:15;;;;;;;1.97;1.80;;;25.80;1.40;;;21.90;33.46;96132.17;645473;212;31850;-74
2022/04/29 10:24:56;;;;;;;2.47;1.90;;;21.40;1.40;;;25.03;32.55;96117.56;645842;212;31603;-74
2022/04/29 10:27:41;;;;;;;4.47;2.00;;;24.40;1.40;;;22.43;33.46;96125.52;646215;212;32111;-74
2022/04/29 10:30:28;;;;;;;5.10;1.80;;;21.30;1.40;;;24.38;34.33;96116.03;646564;216;31759;-74
2022/04/29 10:35:53;;;;;;;3.45;2.37;;;26.70;1.40;;;24.67;32.84;96120.45;646313;212;32047;-74
2022/04/29 10:38:36;;;;;;;4.57;2.37;;;23.20;1.40;;;26.02;33.41;96113.16;618491;222;31846;-74
2022/04/29 10:41:19;;;;;;;2.22;1.95;;;24.80;1.40;;;28.85;27.59;96098.28;642925;214;31912;-74
2022/04/29 10:44:05;;;;;;;2.28;2.05;;;26.40;1.40;;;29.52;28.07;96097.84;645883;216;32110;-74
2022/04/29 10:46:47;;;;;;;2.08;1.98;;;27.00;1.40;;;30.51;30.44;96088.88;646245;212;32198;-75
2022/04/29 10:49:28;;;;;;;2.90;2.35;;;28.10;1.40;;;32.10;27.15;96086.01;645486;212;31556;-74
2022/04/29 10:52:15;;;;;;;3.35;2.20;;;27.90;1.40;;;30.92;25.82;96085.02;646183;216;32237;-73
2022/04/29 10:55:00;;;;;;;3.10;1.90;;;27.00;1.40;;;31.96;27.59;96077.02;647018;216;31826;-75
2022/04/29 10:57:41;;;;;;;3.58;2.10;;;27.20;1.40;;;25.07;29.47;96095.23;646203;216;32027;-74
2022/04/29 11:00:23;;;;;;;4.28;2.10;;;22.60;1.40;;;22.74;32.31;96097.83;646459;216;32412;-74
2022/04/29 11:05:39;;;;;;;2.28;2.08;;;23.40;1.40;;;27.83;29.41;96076.69;617590;225;32124;-74
2022/04/29 11:08:20;;;;;;;3.47;2.10;;;24.50;1.40;;;23.09;31.86;96084.05;642059;216;31869;-74
2022/04/29 11:11:02;;;;;;;3.45;1.90;;;21.20;1.40;;;26.20;31.33;96073.98;645879;216;42369;-74
2022/04/29 11:13:47;;;;;;;4.28;2.30;;;23.70;1.40;;;26.96;29.62;96068.61;646162;216;31542;-75
2022/04/29 11:16:28;;;;;;;3.00;2.17;;;24.60;1.40;;;26.74;31.22;96066.14;646130;216;31522;-74
2022/04/29 11:19:17;;;;;;;2.65;2.00;;;24.40;1.40;;;29.34;28.01;96061.72;618105;226;42555;-74
2022/04/29 11:24:49;;;;;;;3.90;2.30;;;23.10;1.40;;;28.60;27.34;96060.81;645776;212;37085;-74
2022/04/29 11:27:33;;;;;;;1.80;1.60;;;24.60;1.40;;;30.91;25.98;96051.58;618747;226;42693;-73
2022/04/29 11:30:14;;;;;;;2.10;1.90;;;25.60;1.40;;;29.74;25.36;96058.16;619598;222;34882;-73
2022/04/29 11:32:54;;;;;;;1.80;1.70;;;25.50;1.40;;;27.97;27.73;96055.73;645707;216;31652;-74
2022/04/29 11:36:06;;;;;;;2.55;1.62;;;25.10;1.40;;;31.36;26.85;96048.10;644796;212;42372;-75
2022/04/29 11:38:49;;;;;;;1.80;1.70;;;27.10;1.40;;;30.62;27.59;96046.86;619104;225;32052;-74
2022/04/29 11:41:30;;;;;;;3.30;1.90;;;26.40;1.40;;;29.53;26.14;96052.09;647189;212;32172;-74
2022/04/29 11:44:11;;;;;;;2.90;1.80;;;25.80;1.40;;;33.18;24.06;96042.11;646524;216;31869;-75
2022/04/29 11:46:56;;;;;;;2.53;2.10;;;27.50;1.40;;;24.21;28.87;96055.63;646868;212;42476;-73
2022/04/29 11:49:38;;;;;;;3.33;2.20;;;21.60;1.40;;;26.28;29.43;96053.36;646332;212;31789;-75
2022/04/29 11:52:23;;;;;;;1.90;1.80;;;23.10;1.40;;;27.28;27.35;96044.25;646249;216;31711;-75
2022/04/29 11:55:06;;;;;;;2.30;2.10;;;23.20;1.40;;;25.51;29.79;96047.06;646521;216;31729;-74
2022/04/29 11:57:47;;;;;;;2.35;2.15;;;22.60;1.40;;;29.34;25.92;96030.64;645880;216;31761;-74
2022/04/29 12:00:29;;;;;;;2.60;2.37;;;24.70;1.40;;;27.66;28.75;96019.36;647433;216;42819;-76
2022/04/29 12:03:14;;;;;;;2.60;2.40;;;24.00;1.40;;;28.50;26.20;96023.77;646828;216;31533;-74
2022/04/29 12:05:55;;;;;;;3.30;1.80;;;23.80;1.40;;;28.97;28.02;96024.27;645901;215;42197;-74
2022/04/29 12:08:39;;;;;;;1.60;1.50;;;24.90;1.40;;;30.51;26.14;96016.48;641187;216;42448;-73
2022/04/29 12:11:23;;;;;;;2.50;2.00;;;24.90;1.40;;;31.43;24.43;96014.47;647846;212;31789;-75
2022/04/29 12:14:16;;;;;;;5.18;2.80;;;24.50;1.40;;;23.81;31.22;96034.57;645750;216;31564;-74
2022/04/29 12:16:57;;;;;;;3.33;2.27;;;22.20;1.40;;;29.42;27.11;96018.66;647686;216;31787;-75
2022/04/29 12:19:42;;;;;;;3.00;2.70;;;24.50;1.40;;;30.61;26.09;96015.34;647294;212;42233;-74
2022/04/29 12:22:31;;;;;;;3.10;2.30;;;24.70;1.40;;;30.34;25.69;96009.77;619784;226;31901;-74
2022/04/29 12:25:23;;;;;;;2.83;2.25;;;23.50;1.40;;;29.49;26.86;96011.24;646325;216;32147;-74
2022/04/29 12:28:22;;;;;;;3.10;2.30;;;23.10;1.40;;;28.61;27.91;96012.48;646917;212;31578;-74
2022/04/29 12:35:51;;;;;;;3.17;2.40;;;24.50;1.40;;;26.68;28.56;96002.61;647238;216;32434;-75
2022/04/29 12:38:36;;;;;;;2.42;2.22;;;23.10;1.40;;;30.56;26.51;95991.29;645364;216;31710;-74
2022/04/29 12:41:23;;;;;;;2.40;2.20;;;25.10;1.40;;;33.74;24.43;95979.81;647856;216;31745;-75
2022/04/29 12:45:03;;;;;;;2.80;2.50;;;26.30;1.40;;;29.81;25.99;95985.42;645396;212;31567;-74
2022/04/29 12:46:57;;;;;;;2.50;2.30;;;25.10;1.40;;;31.40;24.55;95979.95;647009;213;31584;-75
2022/04/29 12:49:39;;;;;;;4.12;2.00;;;25.80;1.40;;;30.97;25.15;95974.99;646975;216;42340;-74
2022/04/29 12:52:23;;;;;;;2.30;1.70;;;25.90;1.40;;;34.12;22.60;95973.82;645711;216;31712;-75
2022/04/29 12:55:15;;;;;;;2.28;2.05;;;26.60;1.40;;;32.27;25.28;95971.08;646357;216;31663;-74
2022/04/29 12:58:06;;;;;;;3.30;2.60;;;25.60;1.40;;;30.06;24.22;95981.98;646733;212;31691;-75
2022/04/29 13:01:03;;;;;;;3.33;2.50;;;24.60;1.40;;;32.01;25.59;95974.23;647009;216;32145;-74